Time;durP1;ratioP1;P1;durP2;ratioP2;P2;SDS_P1;SDS_P2;PMS_P1;PMS_P2;Temp;Humidity;BMP_temperature;BMP_pressure;BME280_temperature;BME280_humidity;BME280_pressure;Samples;Min_cycle;Max_cycle;Signal;HPM_P1;HPM_P2
2023/05/29 00:01:59;;;;;;;7.13;3.90;;;;;;;13.53;81.08;100661.97;5008854;28;20482;-71
2023/05/29 00:04:25;;;;;;;6.40;4.10;;;;;;;13.93;75.25;100669.28;5009899;28;20250;-72
2023/05/29 00:06:52;;;;;;;6.60;4.00;;;;;;;13.84;76.66;100660.38;5009852;28;20192;-72
2023/05/29 00:09:18;;;;;;;7.53;3.93;;;;;;;13.73;77.57;100663.00;5007375;28;20594;-71
2023/05/29 00:11:50;;;;;;;8.47;4.07;;;;;;;13.83;75.44;100661.25;5009507;28;20617;-72
2023/05/29 00:14:19;;;;;;;5.90;3.87;;;;;;;13.74;76.06;100657.66;5009494;28;20235;-71
2023/05/29 00:16:46;;;;;;;6.07;3.67;;;;;;;13.72;76.45;100655.88;5008367;28;20591;-69
2023/05/29 00:19:13;;;;;;;9.23;4.40;;;;;;;13.75;76.24;100648.81;5007598;28;20239;-71
2023/05/29 00:21:40;;;;;;;9.13;3.90;;;;;;;13.70;77.56;100647.88;5009594;28;20301;-70
2023/05/29 00:24:07;;;;;;;6.43;3.97;;;;;;;13.85;76.19;100644.41;5009842;28;20207;-71
2023/05/29 00:26:33;;;;;;;5.97;3.30;;;;;;;13.67;76.29;100653.19;5007044;28;20222;-71
2023/05/29 00:28:59;;;;;;;6.80;3.60;;;;;;;13.89;73.80;100650.63;5004392;28;20208;-71
2023/05/29 00:31:26;;;;;;;8.87;3.70;;;;;;;14.16;70.96;100648.06;5006235;28;20587;-69
2023/05/29 00:33:52;;;;;;;6.47;3.63;;;;;;;14.24;71.61;100650.75;5002722;28;20200;-71
2023/05/29 00:36:19;;;;;;;6.20;3.60;;;;;;;14.02;73.74;100657.78;5006372;28;20208;-70
2023/05/29 00:38:45;;;;;;;5.37;3.43;;;;;;;13.96;73.18;100655.09;5009395;28;20212;-71
2023/05/29 00:41:15;;;;;;;5.63;3.53;;;;;;;14.05;71.76;100652.47;5007682;28;20200;-70
2023/05/29 00:43:43;;;;;;;4.73;3.40;;;;;;;14.25;70.99;100647.19;4995469;28;20203;-72
2023/05/29 00:46:13;;;;;;;5.20;3.20;;;;;;;14.20;72.54;100646.28;4997199;28;20198;-71
2023/05/29 00:48:42;;;;;;;6.67;3.30;;;;;;;14.09;72.47;100640.94;5009474;28;20291;-70
2023/05/29 00:51:10;;;;;;;6.70;3.63;;;;;;;13.97;73.12;100641.78;5009379;28;20199;-70
2023/05/29 00:53:40;;;;;;;7.93;3.93;;;;;;;13.95;73.93;100645.31;5009561;28;20196;-70
2023/05/29 00:56:07;;;;;;;5.80;3.60;;;;;;;13.93;73.37;100641.75;5000104;28;20641;-71
2023/05/29 00:58:34;;;;;;;5.43;3.50;;;;;;;13.78;74.19;100646.16;5004838;28;20197;-69
2023/05/29 01:01:03;;;;;;;6.63;3.70;;;;;;;13.75;74.08;100646.13;5002936;28;20693;-69
2023/05/29 01:03:32;;;;;;;5.57;3.50;;;;;;;13.59;74.81;100640.72;5005853;28;20222;-71
2023/05/29 01:05:59;;;;;;;6.23;4.07;;;;;;;13.54;74.67;100640.69;5009446;28;20727;-71
2023/05/29 01:08:25;;;;;;;7.30;3.27;;;;;;;13.48;75.67;100644.22;5006754;28;20205;-71
2023/05/29 01:10:56;;;;;;;5.27;3.40;;;;;;;13.49;75.05;100637.13;4998637;28;20201;-70
2023/05/29 01:13:27;;;;;;;4.97;3.50;;;;;;;13.42;76.17;100637.97;5003403;28;20192;-71
2023/05/29 01:16:12;;;;;;;7.03;4.00;;;;;;;13.60;74.67;100646.03;5011235;28;20627;-71
2023/05/29 01:18:50;;;;;;;6.13;3.50;;;;;;;13.48;75.45;100636.22;5012666;28;20231;-70
2023/05/29 01:21:27;;;;;;;7.03;3.40;;;;;;;13.48;74.77;100633.56;5006615;28;20204;-69
2023/05/29 01:24:15;;;;;;;6.33;3.63;;;;;;;13.48;75.12;100641.56;5011810;28;20220;-71
2023/05/29 01:27:03;;;;;;;6.27;3.43;;;;;;;13.53;75.19;100640.69;5007087;28;20386;-70
2023/05/29 01:29:33;;;;;;;8.27;3.80;;;;;;;13.42;76.05;100643.28;5012328;28;20247;-70
2023/05/29 01:32:04;;;;;;;7.53;3.67;;;;;;;13.38;75.88;100646.81;5009341;28;20231;-71
2023/05/29 01:34:31;;;;;;;6.23;3.77;;;;;;;13.29;75.84;100646.78;5012442;28;20684;-70
2023/05/29 01:36:57;;;;;;;5.27;3.27;;;;;;;13.38;75.65;100642.38;5011333;28;20288;-71
2023/05/29 01:39:24;;;;;;;5.53;3.67;;;;;;;13.44;75.36;100641.53;5006359;28;20231;-71
2023/05/29 01:41:52;;;;;;;4.63;3.40;;;;;;;13.47;75.45;100629.13;5001446;28;20195;-71
2023/05/29 01:44:20;;;;;;;7.63;3.17;;;;;;;13.52;74.74;100641.56;5012452;28;20213;-71
2023/05/29 01:46:48;;;;;;;5.83;3.50;;;;;;;13.38;75.47;100638.84;5012004;28;20617;-71
2023/05/29 01:49:15;;;;;;;7.70;3.80;;;;;;;13.36;75.83;100638.81;5005888;28;20239;-71
2023/05/29 01:51:42;;;;;;;7.00;3.70;;;;;;;13.34;75.74;100643.25;5002264;28;20198;-70
2023/05/29 01:54:09;;;;;;;5.60;3.50;;;;;;;13.30;76.20;100637.91;5006061;28;20196;-71
2023/05/29 01:56:36;;;;;;;7.20;3.80;;;;;;;13.25;76.61;100639.66;4997142;28;20200;-69
2023/05/29 01:59:03;;;;;;;6.17;3.63;;;;;;;13.14;77.52;100643.06;5004869;28;20250;-70
2023/05/29 02:01:31;;;;;;;6.40;3.40;;;;;;;13.12;77.25;100636.84;4997041;28;20593;-71
2023/05/29 02:03:57;;;;;;;5.43;3.60;;;;;;;13.18;77.07;100634.25;5007099;28;20585;-70
2023/05/29 02:06:24;;;;;;;6.40;3.73;;;;;;;13.23;76.77;100629.00;5008710;28;20821;-71
2023/05/29 02:08:50;;;;;;;5.67;3.43;;;;;;;13.16;77.13;100621.81;4996704;28;20223;-71
2023/05/29 02:11:17;;;;;;;9.83;3.60;;;;;;;13.05;77.41;100620.84;5005056;28;20195;-70
2023/05/29 02:13:43;;;;;;;5.83;3.40;;;;;;;12.95;78.23;100622.56;5002137;28;20202;-70
2023/05/29 02:16:10;;;;;;;4.83;3.50;;;;;;;12.99;78.09;100621.69;5012001;28;20199;-71
2023/05/29 02:18:36;;;;;;;6.33;3.60;;;;;;;13.13;77.68;100614.69;5000760;28;20207;-69
2023/05/29 02:21:03;;;;;;;7.07;3.60;;;;;;;13.18;77.21;100614.75;5004239;28;20612;-70
2023/05/29 02:23:29;;;;;;;5.93;3.33;;;;;;;13.26;76.41;100613.06;5005582;28;20195;-71
2023/05/29 02:25:56;;;;;;;6.63;3.63;;;;;;;13.27;76.72;100609.53;5001872;28;20869;-69
2023/05/29 02:28:22;;;;;;;9.10;3.20;;;;;;;13.26;76.22;100614.84;4999448;28;20203;-69
2023/05/29 02:30:48;;;;;;;6.10;3.50;;;;;;;13.42;75.35;100616.69;5011803;28;20230;-70
2023/05/29 02:33:15;;;;;;;8.63;3.80;;;;;;;13.36;75.90;100601.59;5009164;28;20604;-71
2023/05/29 02:35:42;;;;;;;4.50;3.17;;;;;;;13.39;75.42;100612.25;5000579;28;20214;-72
2023/05/29 02:38:08;;;;;;;6.87;3.47;;;;;;;13.34;75.70;100613.09;5004942;28;20210;-70
2023/05/29 02:40:37;;;;;;;5.20;3.13;;;;;;;13.40;75.32;100611.38;5011039;28;20312;-70
2023/05/29 02:43:05;;;;;;;5.23;3.33;;;;;;;13.42;75.34;100614.03;5005317;28;20211;-70
2023/05/29 02:45:31;;;;;;;5.77;3.40;;;;;;;13.35;75.08;100612.22;5001639;28;20211;-71
2023/05/29 02:47:59;;;;;;;7.93;3.43;;;;;;;13.28;74.93;100613.97;5007763;28;20287;-72
2023/05/29 02:50:25;;;;;;;8.17;3.50;;;;;;;13.28;74.65;100605.97;4994021;28;20277;-69
2023/05/29 02:52:52;;;;;;;5.97;3.30;;;;;;;13.40;74.41;100610.47;4995990;28;20283;-70
2023/05/29 02:55:18;;;;;;;6.00;3.40;;;;;;;13.56;73.12;100607.00;4998762;28;20201;-70
2023/05/29 02:57:48;;;;;;;6.00;3.23;;;;;;;13.59;73.86;100603.47;5010902;28;20202;-70
2023/05/29 03:00:15;;;;;;;4.97;3.00;;;;;;;13.60;71.86;100608.78;5008579;28;20223;-69
2023/05/29 03:02:41;;;;;;;6.03;3.20;;;;;;;13.73;71.09;100607.09;4999662;28;20203;-70
2023/05/29 03:05:09;;;;;;;6.60;3.33;;;;;;;13.67;71.52;100601.75;5002450;28;20627;-71
2023/05/29 03:07:36;;;;;;;6.03;3.30;;;;;;;13.69;71.63;100607.97;4999148;28;20282;-71
2023/05/29 03:10:03;;;;;;;6.50;3.33;;;;;;;13.67;71.16;100602.63;4997489;28;20220;-72
2023/05/29 03:12:30;;;;;;;7.43;3.50;;;;;;;13.75;71.39;100605.31;5007692;28;20243;-70
2023/05/29 03:14:57;;;;;;;6.60;3.00;;;;;;;13.70;71.92;100607.97;5003468;28;20204;-71
2023/05/29 03:17:23;;;;;;;6.57;3.40;;;;;;;13.68;71.85;100603.53;4995343;28;20286;-69
2023/05/29 03:19:50;;;;;;;4.67;2.90;;;;;;;13.63;72.03;100607.94;4995166;28;20228;-69
2023/05/29 03:22:17;;;;;;;4.40;3.17;;;;;;;13.62;72.22;100609.72;5004490;28;20286;-71
2023/05/29 03:24:43;;;;;;;6.47;3.27;;;;;;;13.59;72.95;100606.13;5007843;28;20209;-69
2023/05/29 03:27:10;;;;;;;6.70;3.60;;;;;;;13.60;73.15;100610.56;4999432;28;20214;-70
2023/05/29 03:29:36;;;;;;;5.00;3.50;;;;;;;13.59;72.83;100614.09;4994154;28;20645;-70
2023/05/29 03:32:03;;;;;;;6.47;3.50;;;;;;;13.48;73.51;100606.97;5008244;28;20207;-71
2023/05/29 03:34:30;;;;;;;4.70;2.97;;;;;;;13.44;73.58;100620.25;5004055;28;20214;-70
2023/05/29 03:36:56;;;;;;;5.07;3.30;;;;;;;13.47;73.60;100620.25;5000906;28;20202;-70
2023/05/29 03:39:23;;;;;;;6.57;3.20;;;;;;;13.46;73.68;100621.16;5009815;28;20269;-71
2023/05/29 03:41:49;;;;;;;7.33;3.10;;;;;;;13.46;73.62;100619.38;5002725;28;20233;-71
2023/05/29 03:44:18;;;;;;;5.97;3.30;;;;;;;13.47;74.14;100625.59;4996332;28;20209;-72
2023/05/29 03:46:44;;;;;;;7.70;3.60;;;;;;;13.37;74.39;100624.66;4998828;28;20228;-71
2023/05/29 03:49:11;;;;;;;7.80;3.20;;;;;;;13.30;75.19;100625.50;5009808;28;20224;-71
2023/05/29 03:51:38;;;;;;;5.80;3.40;;;;;;;13.39;74.88;100632.63;4997823;28;20211;-73
2023/05/29 03:54:04;;;;;;;5.13;3.40;;;;;;;13.46;74.51;100638.00;4996198;28;20383;-71
2023/05/29 03:56:31;;;;;;;6.33;3.00;;;;;;;13.37;74.94;100637.06;4999460;28;20284;-71
2023/05/29 03:58:57;;;;;;;6.70;2.90;;;;;;;13.33;75.03;100641.47;4994539;28;20585;-70
2023/05/29 04:01:23;;;;;;;5.77;2.87;;;;;;;13.27;75.03;100641.44;4996296;28;20230;-70
2023/05/29 04:03:52;;;;;;;4.33;2.87;;;;;;;13.21;75.46;100656.44;5009871;28;20208;-70
2023/05/29 04:06:19;;;;;;;6.80;3.13;;;;;;;13.16;76.43;100665.25;5008409;28;20650;-69
2023/05/29 04:08:45;;;;;;;5.30;3.20;;;;;;;13.14;76.70;100659.03;5001443;28;20741;-71
2023/05/29 04:11:12;;;;;;;6.40;3.40;;;;;;;13.12;77.12;100666.09;5003166;28;20195;-69
2023/05/29 04:13:38;;;;;;;7.13;3.20;;;;;;;13.18;76.05;100663.53;5009852;28;20246;-71
2023/05/29 04:16:05;;;;;;;4.47;3.20;;;;;;;13.17;76.85;100669.72;5008325;28;20298;-70
2023/05/29 04:18:31;;;;;;;6.67;3.00;;;;;;;13.20;78.05;100674.16;4999634;28;20196;-71
2023/05/29 04:20:58;;;;;;;6.47;3.43;;;;;;;13.23;78.14;100681.31;5005780;28;20232;-70
2023/05/29 04:23:24;;;;;;;7.40;3.07;;;;;;;13.25;79.00;100684.88;4993476;28;20779;-69
2023/05/29 04:25:51;;;;;;;6.00;3.40;;;;;;;13.35;77.09;100689.38;4999013;28;20193;-70
2023/05/29 04:28:17;;;;;;;7.17;3.10;;;;;;;13.44;76.86;100698.28;4994318;28;20211;-69
2023/05/29 04:30:43;;;;;;;4.03;2.70;;;;;;;13.50;76.29;100694.78;5004709;28;20307;-70
2023/05/29 04:33:12;;;;;;;7.23;3.23;;;;;;;13.58;76.25;100693.03;5010036;28;20269;-69
2023/05/29 04:35:38;;;;;;;5.67;3.33;;;;;;;13.64;77.02;100694.88;4993860;28;20200;-70
2023/05/29 04:38:05;;;;;;;5.17;3.23;;;;;;;13.71;76.82;100697.59;4999749;28;20575;-69
2023/05/29 04:40:36;;;;;;;7.07;3.20;;;;;;;13.77;77.89;100705.59;4999388;28;20220;-71
2023/05/29 04:43:05;;;;;;;6.27;2.90;;;;;;;13.85;77.70;100704.75;5007294;28;20196;-71
2023/05/29 04:45:31;;;;;;;5.93;3.30;;;;;;;13.90;77.98;100718.97;4992159;28;20212;-69
2023/05/29 04:47:58;;;;;;;6.23;3.53;;;;;;;13.96;79.06;100716.31;4997023;28;20201;-71
2023/05/29 04:50:24;;;;;;;7.37;3.10;;;;;;;14.02;79.21;100719.03;5000277;28;20215;-69
2023/05/29 04:52:51;;;;;;;4.27;2.93;;;;;;;14.05;79.90;100721.72;5002436;28;20276;-70
2023/05/29 04:55:17;;;;;;;5.67;3.30;;;;;;;14.13;79.62;100725.31;4996642;28;20207;-70
2023/05/29 04:57:44;;;;;;;5.70;2.97;;;;;;;14.38;78.85;100732.47;5007615;28;20208;-70
2023/05/29 05:00:14;;;;;;;4.33;3.13;;;;;;;14.38;78.89;100737.81;5012752;28;20220;-70
2023/05/29 05:02:44;;;;;;;6.93;3.13;;;;;;;14.46;79.08;100739.69;5000145;28;20608;-70
2023/05/29 05:05:11;;;;;;;7.27;3.20;;;;;;;14.53;78.92;100744.13;5004265;28;20204;-70
2023/05/29 05:07:38;;;;;;;5.33;3.40;;;;;;;14.60;78.66;100748.59;5011651;28;20196;-69
2023/05/29 05:10:06;;;;;;;5.97;3.40;;;;;;;14.66;78.13;100754.81;5011536;28;20220;-69
2023/05/29 05:12:32;;;;;;;6.50;3.40;;;;;;;14.77;77.63;100751.28;4998270;28;20220;-70
2023/05/29 05:14:58;;;;;;;8.30;3.40;;;;;;;14.86;77.45;100749.53;5000464;28;20200;-70
2023/05/29 05:17:25;;;;;;;8.77;3.80;;;;;;;14.98;75.44;100748.66;4995495;28;20207;-71
2023/05/29 05:19:53;;;;;;;5.90;3.30;;;;;;;15.12;74.54;100759.34;4997209;28;20301;-70
2023/05/29 05:22:19;;;;;;;9.63;3.33;;;;;;;15.44;69.40;100760.25;4994618;28;20636;-71
2023/05/29 05:24:46;;;;;;;6.87;3.33;;;;;;;15.81;68.14;100765.56;5007573;28;20212;-72
2023/05/29 05:27:13;;;;;;;6.47;3.70;;;;;;;16.09;66.66;100764.63;5012412;28;20204;-70
2023/05/29 05:29:39;;;;;;;6.57;3.53;;;;;;;16.28;66.13;100763.66;5005556;28;20223;-70
2023/05/29 05:32:06;;;;;;;6.63;3.00;;;;;;;16.44;65.49;100758.25;4997274;28;20200;-71
2023/05/29 05:34:33;;;;;;;5.43;3.90;;;;;;;16.57;64.39;100763.53;4994831;28;20197;-70
2023/05/29 05:37:00;;;;;;;6.47;3.07;;;;;;;16.71;63.76;100767.94;5009141;28;20258;-70
2023/05/29 05:39:26;;;;;;;5.40;3.57;;;;;;;16.96;63.29;100764.22;5004102;28;20224;-71
2023/05/29 05:41:53;;;;;;;7.77;3.90;;;;;;;17.35;61.97;100762.16;4994559;28;20252;-70
2023/05/29 05:44:19;;;;;;;5.07;3.20;;;;;;;17.48;60.48;100755.78;5000458;28;20205;-70
2023/05/29 05:46:45;;;;;;;6.47;3.60;;;;;;;17.60;60.42;100770.84;4996566;28;20621;-71
2023/05/29 05:49:12;;;;;;;10.07;3.77;;;;;;;17.59;60.01;100774.44;4994318;28;20220;-70
2023/05/29 05:51:38;;;;;;;5.97;3.63;;;;;;;18.04;58.83;100765.09;4998284;28;20203;-70
2023/05/29 05:54:07;;;;;;;7.07;3.50;;;;;;;18.16;58.54;100771.19;5011937;28;20287;-69
2023/05/29 05:56:33;;;;;;;6.73;3.33;;;;;;;18.17;58.37;100769.41;5002969;28;20724;-68
2023/05/29 05:59:00;;;;;;;6.43;3.40;;;;;;;18.21;58.96;100778.31;4993726;28;20303;-68
2023/05/29 06:01:27;;;;;;;6.03;3.37;;;;;;;18.13;58.49;100768.56;4999987;28;20217;-69
2023/05/29 06:03:54;;;;;;;5.53;3.77;;;;;;;17.99;58.75;100773.16;4997868;28;20573;-68
2023/05/29 06:06:20;;;;;;;7.87;3.33;;;;;;;17.92;58.99;100782.19;4997541;28;20251;-68
2023/05/29 06:08:47;;;;;;;5.63;3.20;;;;;;;17.93;59.64;100786.63;4998971;28;20212;-68
2023/05/29 06:11:13;;;;;;;7.27;3.90;;;;;;;17.95;59.32;100768.75;5008496;28;20701;-68
2023/05/29 06:13:40;;;;;;;7.80;3.90;;;;;;;18.00;59.16;100780.28;4991569;28;20244;-71
2023/05/29 06:16:06;;;;;;;6.47;3.33;;;;;;;18.06;59.07;100771.31;5001131;28;20208;-70
2023/05/29 06:18:32;;;;;;;5.23;3.30;;;;;;;18.20;58.66;100776.53;5004213;28;20207;-72
2023/05/29 06:21:00;;;;;;;6.67;3.50;;;;;;;18.43;57.82;100787.88;5011597;28;20589;-71
2023/05/29 06:23:27;;;;;;;6.47;3.33;;;;;;;18.59;57.82;100780.50;4995496;28;20201;-67
2023/05/29 06:25:53;;;;;;;9.67;3.97;;;;;;;18.61;57.23;100781.38;4998055;28;20576;-68
2023/05/29 06:28:20;;;;;;;7.73;3.43;;;;;;;18.65;57.20;100784.03;4993698;28;20212;-68
2023/05/29 06:30:46;;;;;;;5.60;3.70;;;;;;;18.65;57.54;100784.03;5006251;28;20599;-67
2023/05/29 06:33:13;;;;;;;5.67;3.50;;;;;;;18.65;57.09;100792.06;4995561;28;20288;-68
2023/05/29 06:35:39;;;;;;;7.33;3.40;;;;;;;18.67;56.95;100795.63;5011244;28;20204;-68
2023/05/29 06:38:06;;;;;;;4.53;3.23;;;;;;;18.73;57.06;100795.53;5005550;28;20211;-71
2023/05/29 06:40:34;;;;;;;6.00;3.30;;;;;;;18.83;56.40;100793.66;4992143;28;20251;-68
2023/05/29 06:43:01;;;;;;;4.83;3.10;;;;;;;18.98;56.73;100789.84;5007547;28;20231;-69
2023/05/29 06:45:27;;;;;;;6.03;3.63;;;;;;;19.03;56.97;100787.97;5011216;28;20687;-68
2023/05/29 06:47:55;;;;;;;6.67;3.30;;;;;;;19.00;55.84;100799.66;5003793;28;20196;-68
2023/05/29 06:50:22;;;;;;;5.00;3.10;;;;;;;19.13;55.81;100789.59;4995237;28;20235;-68
2023/05/29 06:52:48;;;;;;;5.57;3.40;;;;;;;19.27;55.63;100784.94;5004552;28;20201;-70
2023/05/29 06:55:15;;;;;;;5.27;3.10;;;;;;;19.54;54.93;100777.34;4991761;28;20197;-69
2023/05/29 06:57:42;;;;;;;6.77;3.30;;;;;;;19.57;54.72;100785.34;5004232;28;20243;-68
2023/05/29 07:00:10;;;;;;;6.67;3.50;;;;;;;19.67;54.70;100774.44;5004396;28;20822;-67
2023/05/29 07:02:37;;;;;;;8.10;3.70;;;;;;;19.93;54.36;100773.06;4991237;28;20562;-69
2023/05/29 07:05:04;;;;;;;4.70;3.23;;;;;;;21.29;51.07;100770.19;5006566;28;20301;-69
2023/05/29 07:07:31;;;;;;;5.73;3.60;;;;;;;23.99;43.21;100776.50;4992080;28;20196;-68
2023/05/29 07:09:57;;;;;;;6.13;3.27;;;;;;;25.67;38.91;100789.03;4997464;28;20223;-69
2023/05/29 07:12:23;;;;;;;6.32;3.22;;;;;;;27.41;34.87;100784.59;5008051;28;20235;-67
2023/05/29 07:14:50;;;;;;;6.68;3.33;;;;;;;28.06;32.94;100791.28;5004181;28;20197;-69
2023/05/29 07:17:16;;;;;;;6.82;2.90;;;;;;;28.64;31.03;100789.03;5006608;28;20250;-69
2023/05/29 07:19:43;;;;;;;6.30;3.28;;;;;;;28.55;30.28;100791.38;5010370;28;20256;-68
2023/05/29 07:22:10;;;;;;;5.25;3.28;;;;;;;28.28;29.79;100801.94;5010605;28;20223;-68
2023/05/29 07:24:36;;;;;;;5.50;3.28;;;;;;;27.71;31.03;100802.13;5003642;28;20227;-68
2023/05/29 07:27:03;;;;;;;7.25;3.28;;;;;;;27.46;31.13;100797.00;5008192;28;20657;-68
2023/05/29 07:29:29;;;;;;;6.47;3.05;;;;;;;27.67;30.43;100791.50;5008982;28;20216;-70
2023/05/29 07:31:56;;;;;;;8.77;3.25;;;;;;;27.43;31.00;100816.22;5010279;28;20189;-68
2023/05/29 07:34:22;;;;;;;6.13;3.22;;;;;;;27.83;30.22;100800.63;5001958;28;20608;-68
2023/05/29 07:37:01;;;;;;;6.82;2.90;;;;;;;28.47;29.67;100801.84;5009212;28;20207;-68
2023/05/29 07:39:27;;;;;;;7.28;3.40;;;;;;;28.38;28.87;100811.34;5009900;28;20234;-68
2023/05/29 07:41:54;;;;;;;6.78;3.15;;;;;;;28.65;28.05;100809.00;5006638;28;20247;-70
2023/05/29 07:44:20;;;;;;;6.75;3.00;;;;;;;28.17;28.50;100802.47;5008191;28;20209;-68
2023/05/29 07:46:47;;;;;;;6.13;3.28;;;;;;;28.09;28.69;100797.44;5007985;28;20200;-68
2023/05/29 07:49:13;;;;;;;9.05;2.90;;;;;;;28.78;28.02;100806.47;5001259;28;20221;-69
2023/05/29 07:51:40;;;;;;;4.32;2.92;;;;;;;29.20;27.44;100816.84;5009451;28;20284;-70
2023/05/29 07:54:07;;;;;;;5.53;3.33;;;;;;;28.78;27.29;100811.91;5010083;28;20254;-68
2023/05/29 07:56:36;;;;;;;4.47;2.80;;;;;;;28.01;28.29;100813.25;5010145;28;20275;-68
2023/05/29 07:59:03;;;;;;;4.88;2.90;;;;;;;27.92;28.47;100813.75;5006700;28;20711;-70
2023/05/29 08:01:29;;;;;;;5.45;3.17;;;;;;;27.84;28.77;100813.28;5008733;28;20259;-68
2023/05/29 08:03:56;;;;;;;4.07;2.90;;;;;;;27.04;28.45;100819.03;5009609;28;20308;-68
2023/05/29 08:06:23;;;;;;;6.40;3.13;;;;;;;26.93;29.50;100809.59;5006228;28;20203;-68
2023/05/29 08:08:51;;;;;;;7.15;3.05;;;;;;;26.32;30.75;100813.25;5009532;28;20220;-69
2023/05/29 08:11:19;;;;;;;5.10;3.03;;;;;;;25.72;31.57;100811.41;5008172;28;20192;-68
2023/05/29 08:13:45;;;;;;;3.83;2.75;;;;;;;25.87;31.92;100810.75;5008728;28;20207;-70
2023/05/29 08:16:14;;;;;;;4.30;3.00;;;;;;;25.83;32.29;100815.41;5005431;28;20196;-68
2023/05/29 08:18:40;;;;;;;6.40;2.92;;;;;;;25.95;32.04;100808.56;5009997;28;20203;-69
2023/05/29 08:21:07;;;;;;;4.88;2.70;;;;;;;25.94;32.07;100806.81;5007937;28;20729;-68
2023/05/29 08:23:33;;;;;;;5.05;2.88;;;;;;;26.01;32.67;100800.16;5006343;28;20196;-69
2023/05/29 08:26:02;;;;;;;5.38;2.90;;;;;;;25.38;33.03;100806.47;5011003;28;20192;-69
2023/05/29 08:28:29;;;;;;;4.68;2.88;;;;;;;24.87;33.97;100803.03;5012977;28;20231;-70
2023/05/29 08:30:56;;;;;;;4.25;2.90;;;;;;;24.19;33.28;100795.63;5012718;28;20576;-71
2023/05/29 08:33:22;;;;;;;6.07;3.20;;;;;;;24.33;33.67;100811.41;5007053;28;20243;-69
2023/05/29 08:35:49;;;;;;;7.28;2.67;;;;;;;24.04;33.11;100812.44;5011193;28;20232;-68
2023/05/29 08:38:15;;;;;;;5.88;2.88;;;;;;;23.89;32.46;100815.66;5012817;28;20204;-68
2023/05/29 08:40:42;;;;;;;4.60;3.42;;;;;;;23.71;33.14;100806.38;5013216;28;20759;-68
2023/05/29 08:43:22;;;;;;;5.88;3.30;;;;;;;23.79;33.55;100806.09;5005045;28;20197;-69
2023/05/29 08:45:53;;;;;;;5.40;3.30;;;;;;;24.17;33.22;100810.16;5006310;28;20575;-68
2023/05/29 08:48:24;;;;;;;7.45;3.13;;;;;;;24.52;33.79;100806.22;5010971;28;20287;-70
2023/05/29 08:50:54;;;;;;;4.78;3.05;;;;;;;24.87;33.75;100807.56;5008150;28;20673;-69
2023/05/29 08:53:22;;;;;;;3.65;2.65;;;;;;;25.06;32.51;100815.88;5007322;28;20208;-69
2023/05/29 08:55:52;;;;;;;3.83;2.80;;;;;;;25.07;31.41;100801.41;5010876;28;20192;-68
2023/05/29 08:58:23;;;;;;;7.15;3.55;;;;;;;25.06;32.20;100808.63;5009185;28;20211;-68
2023/05/29 09:00:51;;;;;;;4.30;3.00;;;;;;;24.98;31.33;100803.53;5006257;28;20366;-69
2023/05/29 09:03:20;;;;;;;4.43;2.95;;;;;;;25.16;30.94;100809.16;5011849;28;20266;-68
2023/05/29 09:05:48;;;;;;;7.72;4.18;;;;;;;25.10;30.59;100807.56;5011017;28;20247;-69
2023/05/29 09:08:16;;;;;;;5.20;3.00;;;;;;;25.17;31.01;100806.38;5008431;28;20210;-69
2023/05/29 09:10:43;;;;;;;4.10;2.67;;;;;;;25.04;31.70;100820.50;5011062;28;20223;-69
2023/05/29 09:13:11;;;;;;;4.07;2.90;;;;;;;25.17;32.18;100806.38;5013007;28;20283;-68
2023/05/29 09:15:39;;;;;;;8.23;2.97;;;;;;;24.74;31.38;100823.41;5013014;28;20673;-71
2023/05/29 09:18:07;;;;;;;5.18;3.15;;;;;;;24.26;31.29;100809.84;5006034;28;20553;-69
2023/05/29 09:20:34;;;;;;;6.60;3.00;;;;;;;24.29;32.17;100805.22;5009860;28;20708;-69
2023/05/29 09:23:06;;;;;;;4.60;3.30;;;;;;;24.56;32.88;100806.03;5012785;28;20217;-70
2023/05/29 09:25:35;;;;;;;5.85;3.40;;;;;;;24.90;32.57;100816.47;5011173;28;20214;-70
2023/05/29 09:28:07;;;;;;;4.55;2.90;;;;;;;25.03;31.75;100813.31;5006061;28;20193;-68
2023/05/29 09:30:37;;;;;;;5.22;3.13;;;;;;;25.10;31.65;100821.13;5009833;28;20216;-69
2023/05/29 09:33:06;;;;;;;3.95;2.90;;;;;;;25.03;30.98;100819.59;5012830;28;20208;-69
2023/05/29 09:35:48;;;;;;;4.85;2.67;;;;;;;24.96;30.81;100818.94;5011635;28;20615;-69
2023/05/29 09:38:19;;;;;;;4.35;2.97;;;;;;;25.13;31.81;100818.28;5010178;28;20200;-70
2023/05/29 09:41:05;;;;;;;5.95;3.05;;;;;;;25.36;31.58;100811.06;5010265;28;20207;-69
2023/05/29 09:43:32;;;;;;;5.25;2.90;;;;;;;25.47;30.95;100814.22;5011190;28;20200;-70
2023/05/29 09:46:00;;;;;;;6.28;3.03;;;;;;;25.43;30.89;100810.75;5012788;28;20291;-69
2023/05/29 09:48:29;;;;;;;7.00;3.15;;;;;;;25.65;30.71;100809.88;5008654;28;20201;-69
2023/05/29 09:50:57;;;;;;;6.72;3.08;;;;;;;25.63;30.84;100809.94;5010942;28;20193;-70
2023/05/29 09:53:25;;;;;;;5.30;3.30;;;;;;;25.61;30.41;100809.97;5012516;28;20203;-69
2023/05/29 09:55:52;;;;;;;7.07;3.05;;;;;;;25.64;30.30;100813.53;5007322;28;20295;-70
2023/05/29 09:58:23;;;;;;;6.28;3.25;;;;;;;25.69;31.12;100814.25;5008281;28;20572;-69
2023/05/29 10:00:51;;;;;;;4.65;3.10;;;;;;;25.92;31.19;100815.00;5009325;28;20212;-70
2023/05/29 10:03:21;;;;;;;5.80;3.47;;;;;;;26.19;30.61;100804.78;5003427;28;20224;-70
2023/05/29 10:05:50;;;;;;;4.10;2.95;;;;;;;26.36;29.85;100798.63;5008835;28;20204;-70
2023/05/29 10:08:19;;;;;;;8.05;3.85;;;;;;;26.43;29.41;100805.56;5008788;28;20204;-70
2023/05/29 10:10:47;;;;;;;3.92;2.90;;;;;;;26.59;29.14;100804.84;5010712;28;20216;-69
2023/05/29 10:13:15;;;;;;;4.70;3.03;;;;;;;26.70;30.20;100802.50;5005356;28;20202;-69
2023/05/29 10:15:44;;;;;;;5.63;2.72;;;;;;;26.47;28.46;100804.47;5005423;28;20196;-69
2023/05/29 10:18:20;;;;;;;5.10;3.33;;;;;;;26.17;29.59;100795.84;5007939;28;20204;-70
2023/05/29 10:20:52;;;;;;;5.20;3.33;;;;;;;26.34;32.49;100794.22;5002233;28;20235;-69
2023/05/29 10:23:23;;;;;;;5.95;3.22;;;;;;;26.33;29.46;100792.41;5008243;28;20588;-69
2023/05/29 10:25:52;;;;;;;4.72;3.10;;;;;;;26.20;29.37;100792.09;5012065;28;20196;-69
2023/05/29 10:28:23;;;;;;;6.00;3.03;;;;;;;26.24;29.31;100789.16;5009361;28;20239;-70
2023/05/29 10:31:04;;;;;;;3.47;2.95;;;;;;;26.48;29.98;100802.63;5008933;28;20296;-69
2023/05/29 10:34:02;;;;;;;4.63;2.97;;;;;;;26.63;29.23;100799.19;5010035;28;20259;-72
2023/05/29 10:36:37;;;;;;;6.05;3.17;;;;;;;26.77;29.62;100799.44;5006333;28;20215;-69
2023/05/29 10:39:04;;;;;;;4.72;3.25;;;;;;;26.85;29.22;100805.41;5009019;28;20231;-69
2023/05/29 10:41:39;;;;;;;5.78;3.38;;;;;;;26.60;28.84;100803.91;5007604;28;20219;-69
2023/05/29 10:44:31;;;;;;;6.45;3.67;;;;;;;26.73;28.69;100805.09;5011502;28;20574;-70
2023/05/29 10:47:02;;;;;;;6.32;3.20;;;;;;;26.69;28.50;100798.91;5002973;28;20192;-69
2023/05/29 10:49:29;;;;;;;7.28;3.70;;;;;;;26.20;28.65;100801.13;5004198;28;20568;-69
2023/05/29 10:51:57;;;;;;;5.93;3.47;;;;;;;25.98;28.86;100802.13;5003941;28;20608;-71
2023/05/29 10:54:25;;;;;;;4.43;3.38;;;;;;;26.18;30.17;100789.44;5004162;28;20201;-70
2023/05/29 10:57:01;;;;;;;5.55;3.10;;;;;;;26.44;29.24;100788.31;5007330;28;20197;-70
2023/05/29 10:59:28;;;;;;;4.07;3.00;;;;;;;26.18;28.28;100797.59;5009640;28;20227;-69
2023/05/29 11:01:57;;;;;;;4.47;2.83;;;;;;;26.19;27.75;100787.63;5008699;28;20226;-69
2023/05/29 11:04:26;;;;;;;6.55;2.80;;;;;;;26.14;28.50;100795.97;5001909;28;20196;-69
2023/05/29 11:06:52;;;;;;;3.90;3.03;;;;;;;26.41;27.55;100788.44;5008840;28;20700;-69
2023/05/29 11:09:36;;;;;;;6.57;3.17;;;;;;;26.54;27.75;100794.19;5010797;28;20220;-68
2023/05/29 11:12:35;;;;;;;5.63;2.95;;;;;;;26.42;26.19;100795.66;5009843;28;20196;-69
2023/05/29 11:15:13;;;;;;;4.78;2.90;;;;;;;26.61;27.19;100787.53;5002974;28;20222;-69
2023/05/29 11:17:44;;;;;;;4.57;2.97;;;;;;;26.88;26.03;100781.75;5008069;28;20199;-69
2023/05/29 11:20:28;;;;;;;6.72;3.25;;;;;;;27.02;26.21;100784.72;5005666;28;20286;-69
2023/05/29 11:23:03;;;;;;;5.80;3.42;;;;;;;26.97;26.82;100774.03;5006402;28;20299;-68
2023/05/29 11:25:35;;;;;;;9.30;3.10;;;;;;;26.54;26.87;100794.19;5010498;28;20463;-69
2023/05/29 11:28:07;;;;;;;4.55;3.20;;;;;;;26.32;27.81;100782.50;5002216;28;20222;-70
2023/05/29 11:30:45;;;;;;;5.93;3.35;;;;;;;26.13;27.53;100777.91;5006930;28;20418;-69